Barksdale Air Force Base

KBAD · 路易斯安那州, 美国

罗盘
风向 的 风向 170° Barksdale Air Force Base 15/33
风: 4 kt, 2 beaufort

4 kt

1 kt
改变
0 1.000 2.000 3.000 4.000 5.000
OVC 4.800 ft
METAR KMNE 021915Z AUTO 17004KT 10SM OVC048 19/15 A3010 RMK AO2 T01910154

METAR Barksdale Air Force Base - KBAD/BAD

Barksdale Air Force Base是,美国中的中型机场。 该机场有一条跑道: 15/33. 该领域的国际民航组织标志是KBAD 它的国际航空运输协会代码是BAD.

这份报告是针对2022年12月2日 13:15, 当地时间在Minden进行的。

机场观察

风向为170°,速度为4 kt。

可见度为10 mi。

有乌云密布在4.800 ft的高度。 破损或更高的上限为4.800 ft。

温度和风寒是19 °C。 露点为15 °C,相对湿度为78%。 海平面上的气压为30,10 inHg (QNH)。

白天

今天,太阳从06:59升起,在17:08降落。 这适用于Barksdale Air Force Base,世界夏令时可能有所不同。 当地时间与世界标准时间之间的时差为-6 小时。 当前,没有夏令时有效。

公司介绍

我们没有关于这个机场的公司信息。

体会

到Vliegles.nl去找飞行课程,跳伞和其他飞行体验。 浏览页面,了解Barksdale Air Force Base附近所有可用的活动。 你也可以使用搜索功能来寻找你所在地附近的特定飞行课程、跳伞或其他飞行体验。

跑道

Id 标题 侧风 逆风 侧风 %
15/33 151°-331° 1 kt 4 kt 33 %

逆风成分最大的方向会被突出显示,并用于横风计算。 这并不一定意味着这个方向在使用。

乌云

4.800 ft OVC 乌云密布

温度 & 天气

温度 19,1 °C
露点 15,4 °C
相对湿度 78%
Kp-index 1 (0-9)

评论

AO2自动气象站,可确定降水类型
T01910154温度为19,1 °C (66,4 °F),露点为15,4 °C (59,7 °F)

白天

日出
06:58
中午
12:02
日落
17:07 (3:41)

小工具

你想在你的网站上有一个关于Barksdale Air Force Base的当前航空天气(METAR)的小部件吗?

显示HTML代码

我们和第三方通过cookies跟踪您在我们网站上的互联网行为。如果你继续,我们认为你同意我们的饼干政策